Newark, New Jersey
Current Conditions -  °F | °C
As of 10:51 AM on Sunday 21 Dec 2014 (Local Time) from KEWR Reporting Station
Overcast Overcast  
Wind Chill: 27°   Ceiling: 1500
Heat Index: 34°   Visibility: 10mi
Dew Point: 26°   Wind: 8mph
Humidity: 73%   Direction: 350°N
Pressure: 30.32"   Gusts: NA
Location:  40.73°N, 74.17°W
Report Text: KEWR 211551Z 35007KT 10SM FEW010 BKN015 OVC022 01/M03 A3032 RMK AO2 SLP266 T00111033
Loading
Personal Weather Stations






























Interactive Weather Map New forecast layout! Learn more

10-Day Weather Forecast

Advertisements
Track Severe Weather on mobile